Pagrindinis puslapis
METAR-TAF:

METAR-TAF

Oro uostai :

Kororas, Babeltuapas, Palau

platuma: 07-22N, ilguma: 134-32E, Aukštis: 54 m

Dabartinis oras

Ataskaita buvo paskelbta 47 minutes, ne 16:50 UTC
Ramus vėjas
Temperatūra 25°C
Drėgmė 94%
Slėgis 1008 hPa
Matomumas: 22.5 km
Mažai debesys ne aukštis 1500 ft
Išsisklaidę debesys ne aukštis 30000 ft

METAR: PTRO 071650Z 00000KT 14SM FEW015 SCT300 25/24 A2977

Laikas: 02:37 (17:37 UTC)

Prognozė

Ataskaita buvo paskelbta 15 minutes, ne 17:22 UTC
Prognozė galioja nuo 07 metu 18 UTC su 08 metu 18 UTC
Vėjas 4 kt nuo kintamojo kryptimis
Matomumas: 10 km
Mažai debesys ne aukštis 1600 ft
Su prošvaistėmis ne aukštis 12000 ft
Nuo 08 metu 0200 UTC
Vėjas 10 kt iš Rytų
Matomumas: 10 km
Išsisklaidę debesys ne aukštis 1500 ft
Išsisklaidę debesys ne aukštis 5000 ft
Liūtis kaimynystėje

TAF: PTRO 071722Z 0718/0818 VRB04KT P6SM FEW016 BKN120 FM080200 09010KT P6SM VCSH SCT015 SCT050

Orai ataskaitas ir orų prognozės (METAR, TAF).

turimą stotys yra geltonos ir raudonos taškus žemėlapyje.

Perkelti pele per norėdami pamatyti stoties vardą.

Tada spustelėkite, norėdami matyti oro stebėjimo ir prognozės.

Norėdami pakeisti žemėlapį: spustelėkite ant žalios mygtukų su juodo kryžiaus žemyn,; žalią mygtuką su brūkšneliu, jei norite nutolinti; arba žalių rodyklių gretimoms žemėlapius.


METAR-TAF: